sensor_id;sensor_type;location;lat;lon;timestamp;P1;P4;P2;P0;N10;N4;N25;N1;N05;TS
79186;SPS30;68762;51.980;5.646;2023-09-19T00:00:57;2.3;2.2;2.1;1.9;;;;2.0;47.0;
79186;SPS30;68762;51.980;5.646;2023-09-19T00:03:26;2.0;2.0;1.9;1.7;;;;2.0;46.0;
79186;SPS30;68762;51.980;5.646;2023-09-19T00:05:54;1.9;1.9;1.8;1.6;;;;2.0;47.0;
79186;SPS30;68762;51.980;5.646;2023-09-19T00:08:26;2.3;2.3;2.2;2.0;;;;2.0;49.0;
79186;SPS30;68762;51.980;5.646;2023-09-19T00:10:55;2.3;2.3;2.2;2.0;;;;2.0;48.0;
79186;SPS30;68762;51.980;5.646;2023-09-19T00:13:29;2.3;2.2;2.1;1.9;;;;2.0;47.0;
79186;SPS30;68762;51.980;5.646;2023-09-19T00:15:58;2.2;2.1;2.0;1.8;;;;2.0;46.0;
79186;SPS30;68762;51.980;5.646;2023-09-19T00:18:27;2.0;1.9;1.8;1.6;;;;2.0;46.0;
79186;SPS30;68762;51.980;5.646;2023-09-19T00:20:58;2.0;2.0;1.8;1.6;;;;2.0;46.0;
79186;SPS30;68762;51.980;5.646;2023-09-19T00:23:27;2.6;2.5;2.4;2.1;;;;2.0;45.0;
79186;SPS30;68762;51.980;5.646;2023-09-19T00:25:59;2.6;2.5;2.3;2.0;;;;2.0;42.0;
79186;SPS30;68762;51.980;5.646;2023-09-19T00:28:28;2.4;2.3;2.1;1.8;;;;2.0;40.0;
79186;SPS30;68762;51.980;5.646;2023-09-19T00:30:58;2.7;2.6;2.3;2.0;;;;2.0;40.0;
79186;SPS30;68762;51.980;5.646;2023-09-19T00:33:28;2.2;2.1;1.9;1.6;;;;2.0;39.0;
79186;SPS30;68762;51.980;5.646;2023-09-19T00:35:57;2.9;2.8;2.5;2.1;;;;2.0;40.0;
79186;SPS30;68762;51.980;5.646;2023-09-19T00:38:28;2.5;2.4;2.1;1.8;;;;2.0;43.0;
79186;SPS30;68762;51.980;5.646;2023-09-19T00:40:58;2.4;2.3;2.0;1.7;;;;2.0;44.0;
79186;SPS30;68762;51.980;5.646;2023-09-19T00:43:27;2.2;2.1;1.9;1.5;;;;2.0;45.0;
79186;SPS30;68762;51.980;5.646;2023-09-19T00:46:00;2.4;2.3;2.0;1.7;;;;2.0;47.0;
79186;SPS30;68762;51.980;5.646;2023-09-19T00:48:29;2.8;2.7;2.4;1.9;;;;2.0;52.0;
79186;SPS30;68762;51.980;5.646;2023-09-19T00:50:59;2.6;2.5;2.2;1.8;;;;2.0;53.0;
79186;SPS30;68762;51.980;5.646;2023-09-19T00:53:31;2.5;2.4;2.2;1.9;;;;2.0;59.0;
79186;SPS30;68762;51.980;5.646;2023-09-19T00:56:01;2.6;2.5;2.3;1.9;;;;2.0;58.0;
79186;SPS30;68762;51.980;5.646;2023-09-19T00:58:34;2.8;2.7;2.5;2.1;;;;2.0;57.0;
79186;SPS30;68762;51.980;5.646;2023-09-19T01:01:04;2.8;2.7;2.5;2.1;;;;2.0;57.0;
79186;SPS30;68762;51.980;5.646;2023-09-19T01:03:34;2.7;2.6;2.4;2.1;;;;2.0;57.0;
79186;SPS30;68762;51.980;5.646;2023-09-19T01:06:02;2.7;2.6;2.5;2.1;;;;2.0;59.0;
79186;SPS30;68762;51.980;5.646;2023-09-19T01:08:31;2.9;2.8;2.6;2.2;;;;2.0;61.0;
79186;SPS30;68762;51.980;5.646;2023-09-19T01:11:03;3.5;3.4;3.1;2.7;;;;2.0;64.0;
79186;SPS30;68762;51.980;5.646;2023-09-19T01:13:44;3.2;3.1;2.9;2.5;;;;2.0;64.0;
79186;SPS30;68762;51.980;5.646;2023-09-19T01:16:26;3.0;2.9;2.6;2.3;;;;2.0;63.0;
79186;SPS30;68762;51.980;5.646;2023-09-19T01:19:06;3.0;2.9;2.7;2.3;;;;2.0;62.0;
79186;SPS30;68762;51.980;5.646;2023-09-19T01:21:49;3.2;3.1;2.8;2.3;;;;2.0;63.0;
79186;SPS30;68762;51.980;5.646;2023-09-19T01:24:34;3.2;3.1;2.8;2.3;;;;2.0;66.0;
79186;SPS30;68762;51.980;5.646;2023-09-19T01:28:51;3.1;3.0;2.7;2.3;;;;2.0;68.0;
79186;SPS30;68762;51.980;5.646;2023-09-19T01:31:28;3.8;3.6;3.3;2.7;;;;2.0;66.0;
79186;SPS30;68762;51.980;5.646;2023-09-19T01:34:00;3.7;3.5;3.1;2.5;;;;2.0;64.0;
79186;SPS30;68762;51.980;5.646;2023-09-19T01:36:32;3.4;3.2;2.8;2.3;;;;2.0;62.0;
79186;SPS30;68762;51.980;5.646;2023-09-19T01:39:02;3.6;3.4;3.0;2.4;;;;2.0;61.0;
79186;SPS30;68762;51.980;5.646;2023-09-19T01:41:58;3.4;3.2;2.9;2.4;;;;2.0;60.0;
79186;SPS30;68762;51.980;5.646;2023-09-19T01:44:35;3.6;3.4;3.0;2.4;;;;2.0;58.0;
79186;SPS30;68762;51.980;5.646;2023-09-19T01:47:18;3.5;3.3;2.9;2.3;;;;2.0;58.0;
79186;SPS30;68762;51.980;5.646;2023-09-19T01:49:55;3.5;3.3;2.9;2.2;;;;2.0;57.0;
79186;SPS30;68762;51.980;5.646;2023-09-19T01:52:30;3.2;3.0;2.6;2.0;;;;2.0;54.0;
79186;SPS30;68762;51.980;5.646;2023-09-19T01:55:06;3.2;3.0;2.6;2.0;;;;2.0;53.0;
79186;SPS30;68762;51.980;5.646;2023-09-19T01:57:42;4.2;4.0;3.4;2.6;;;;2.0;51.0;
79186;SPS30;68762;51.980;5.646;2023-09-19T02:00:22;4.0;3.8;3.2;2.4;;;;2.0;47.0;
79186;SPS30;68762;51.980;5.646;2023-09-19T02:02:55;3.8;3.6;3.1;2.4;;;;2.0;47.0;
79186;SPS30;68762;51.980;5.646;2023-09-19T02:05:26;3.7;3.5;3.0;2.3;;;;2.0;47.0;
79186;SPS30;68762;51.980;5.646;2023-09-19T02:07:55;3.7;3.4;2.9;2.2;;;;2.0;48.0;
79186;SPS30;68762;51.980;5.646;2023-09-19T02:10:24;3.5;3.3;2.9;2.2;;;;2.0;48.0;
79186;SPS30;68762;51.980;5.646;2023-09-19T02:12:55;3.5;3.4;3.0;2.3;;;;2.0;49.0;
79186;SPS30;68762;51.980;5.646;2023-09-19T02:15:26;4.0;3.7;3.3;2.6;;;;2.0;51.0;
79186;SPS30;68762;51.980;5.646;2023-09-19T02:17:58;4.2;4.0;3.5;2.7;;;;2.0;52.0;
79186;SPS30;68762;51.980;5.646;2023-09-19T02:20:29;3.4;3.2;2.8;2.2;;;;2.0;52.0;
79186;SPS30;68762;51.980;5.646;2023-09-19T02:22:59;4.0;3.8;3.3;2.6;;;;2.0;53.0;
79186;SPS30;68762;51.980;5.646;2023-09-19T02:25:29;3.6;3.4;3.0;2.3;;;;2.0;54.0;
79186;SPS30;68762;51.980;5.646;2023-09-19T02:27:58;3.4;3.2;2.8;2.2;;;;2.0;53.0;
79186;SPS30;68762;51.980;5.646;2023-09-19T02:30:29;4.1;3.9;3.4;2.7;;;;2.0;53.0;
79186;SPS30;68762;51.980;5.646;2023-09-19T02:32:58;3.2;3.0;2.7;2.1;;;;2.0;53.0;
79186;SPS30;68762;51.980;5.646;2023-09-19T02:35:29;4.0;3.8;3.3;2.6;;;;2.0;52.0;
79186;SPS30;68762;51.980;5.646;2023-09-19T02:38:01;4.7;4.4;3.7;2.8;;;;2.0;50.0;
79186;SPS30;68762;51.980;5.646;2023-09-19T02:40:32;4.7;4.4;3.8;2.9;;;;2.0;48.0;
79186;SPS30;68762;51.980;5.646;2023-09-19T02:43:01;4.4;4.1;3.5;2.6;;;;2.0;47.0;
79186;SPS30;68762;51.980;5.646;2023-09-19T02:45:31;3.3;3.1;2.7;2.1;;;;2.0;45.0;
79186;SPS30;68762;51.980;5.646;2023-09-19T02:48:00;3.7;3.5;3.0;2.3;;;;2.0;44.0;
79186;SPS30;68762;51.980;5.646;2023-09-19T02:50:30;3.9;3.6;3.2;2.4;;;;2.0;43.0;
79186;SPS30;68762;51.980;5.646;2023-09-19T02:53:00;3.6;3.4;2.9;2.2;;;;2.0;43.0;
79186;SPS30;68762;51.980;5.646;2023-09-19T02:55:28;4.7;4.4;3.8;2.8;;;;2.0;43.0;
79186;SPS30;68762;51.980;5.646;2023-09-19T02:57:58;4.5;4.2;3.6;2.7;;;;2.0;41.0;
79186;SPS30;68762;51.980;5.646;2023-09-19T03:00:27;3.7;3.5;3.0;2.3;;;;2.0;40.0;
79186;SPS30;68762;51.980;5.646;2023-09-19T03:02:56;4.0;3.7;3.2;2.5;;;;2.0;39.0;
79186;SPS30;68762;51.980;5.646;2023-09-19T03:05:25;3.8;3.6;3.1;2.4;;;;2.0;38.0;
79186;SPS30;68762;51.980;5.646;2023-09-19T03:07:57;3.9;3.6;3.2;2.5;;;;2.0;37.0;
79186;SPS30;68762;51.980;5.646;2023-09-19T03:10:27;3.7;3.5;3.1;2.4;;;;2.0;35.0;
79186;SPS30;68762;51.980;5.646;2023-09-19T03:12:57;3.8;3.5;3.0;2.3;;;;2.0;34.0;
79186;SPS30;68762;51.980;5.646;2023-09-19T03:15:27;4.0;3.8;3.2;2.4;;;;2.0;34.0;
79186;SPS30;68762;51.980;5.646;2023-09-19T03:17:55;4.1;3.8;3.2;2.4;;;;2.0;33.0;
79186;SPS30;68762;51.980;5.646;2023-09-19T03:20:25;3.1;2.9;2.5;1.9;;;;2.0;33.0;
79186;SPS30;68762;51.980;5.646;2023-09-19T03:22:54;3.4;3.2;2.7;2.1;;;;2.0;32.0;
79186;SPS30;68762;51.980;5.646;2023-09-19T03:25:23;4.0;3.8;3.3;2.5;;;;2.0;32.0;
79186;SPS30;68762;51.980;5.646;2023-09-19T03:27:51;4.0;3.8;3.3;2.5;;;;2.0;31.0;
79186;SPS30;68762;51.980;5.646;2023-09-19T03:30:20;4.6;4.3;3.6;2.7;;;;2.0;31.0;
79186;SPS30;68762;51.980;5.646;2023-09-19T03:32:49;3.4;3.2;2.7;2.0;;;;2.0;31.0;
79186;SPS30;68762;51.980;5.646;2023-09-19T03:35:17;3.7;3.4;2.9;2.1;;;;2.0;31.0;
79186;SPS30;68762;51.980;5.646;2023-09-19T03:37:46;4.3;4.1;3.5;2.7;;;;2.0;31.0;
79186;SPS30;68762;51.980;5.646;2023-09-19T03:40:15;4.1;3.8;3.2;2.4;;;;2.0;31.0;
79186;SPS30;68762;51.980;5.646;2023-09-19T03:42:46;3.8;3.5;3.0;2.2;;;;2.0;32.0;
79186;SPS30;68762;51.980;5.646;2023-09-19T03:45:15;3.5;3.2;2.7;2.0;;;;2.0;36.0;
79186;SPS30;68762;51.980;5.646;2023-09-19T03:47:44;4.1;3.9;3.3;2.5;;;;2.0;41.0;
79186;SPS30;68762;51.980;5.646;2023-09-19T03:50:14;3.8;3.5;3.0;2.3;;;;2.0;43.0;
79186;SPS30;68762;51.980;5.646;2023-09-19T03:52:43;3.7;3.5;3.0;2.4;;;;2.0;43.0;
79186;SPS30;68762;51.980;5.646;2023-09-19T03:55:12;4.2;3.9;3.4;2.7;;;;2.0;44.0;
79186;SPS30;68762;51.980;5.646;2023-09-19T03:57:41;3.6;3.4;2.9;2.2;;;;2.0;45.0;
79186;SPS30;68762;51.980;5.646;2023-09-19T04:00:09;3.9;3.7;3.1;2.3;;;;2.0;46.0;
79186;SPS30;68762;51.980;5.646;2023-09-19T04:02:44;4.0;3.7;3.2;2.4;;;;2.0;46.0;
79186;SPS30;68762;51.980;5.646;2023-09-19T04:05:15;3.6;3.4;2.9;2.2;;;;2.0;45.0;
79186;SPS30;68762;51.980;5.646;2023-09-19T04:07:43;3.9;3.7;3.2;2.5;;;;2.0;45.0;
79186;SPS30;68762;51.980;5.646;2023-09-19T04:10:12;3.9;3.7;3.2;2.5;;;;2.0;45.0;
79186;SPS30;68762;51.980;5.646;2023-09-19T04:12:51;3.8;3.6;3.2;2.5;;;;2.0;44.0;
79186;SPS30;68762;51.980;5.646;2023-09-19T04:15:21;3.8;3.6;3.2;2.5;;;;2.0;44.0;
79186;SPS30;68762;51.980;5.646;2023-09-19T04:17:50;3.6;3.4;2.9;2.3;;;;2.0;44.0;
79186;SPS30;68762;51.980;5.646;2023-09-19T04:20:20;3.2;3.1;2.7;2.1;;;;2.0;44.0;
79186;SPS30;68762;51.980;5.646;2023-09-19T04:22:50;3.1;2.9;2.6;2.1;;;;2.0;45.0;
79186;SPS30;68762;51.980;5.646;2023-09-19T04:25:19;3.7;3.5;3.1;2.5;;;;2.0;46.0;
79186;SPS30;68762;51.980;5.646;2023-09-19T04:27:47;3.5;3.3;2.9;2.3;;;;2.0;46.0;
79186;SPS30;68762;51.980;5.646;2023-09-19T04:30:16;4.4;4.2;3.7;2.9;;;;2.0;47.0;
79186;SPS30;68762;51.980;5.646;2023-09-19T04:32:47;2.9;2.8;2.4;1.9;;;;2.0;48.0;
79186;SPS30;68762;51.980;5.646;2023-09-19T04:35:16;4.1;3.9;3.3;2.5;;;;2.0;50.0;
79186;SPS30;68762;51.980;5.646;2023-09-19T04:37:45;4.0;3.8;3.3;2.5;;;;2.0;52.0;
79186;SPS30;68762;51.980;5.646;2023-09-19T04:40:14;3.7;3.5;3.0;2.2;;;;2.0;53.0;
79186;SPS30;68762;51.980;5.646;2023-09-19T04:42:43;4.4;4.1;3.5;2.6;;;;2.0;54.0;
79186;SPS30;68762;51.980;5.646;2023-09-19T04:45:12;3.9;3.7;3.2;2.5;;;;2.0;53.0;
79186;SPS30;68762;51.980;5.646;2023-09-19T04:47:41;4.2;4.0;3.5;2.7;;;;2.0;53.0;
79186;SPS30;68762;51.980;5.646;2023-09-19T04:50:10;4.4;4.2;3.7;3.0;;;;2.0;54.0;
79186;SPS30;68762;51.980;5.646;2023-09-19T04:52:41;3.6;3.4;3.0;2.3;;;;2.0;54.0;
79186;SPS30;68762;51.980;5.646;2023-09-19T04:55:11;3.9;3.6;3.2;2.5;;;;2.0;54.0;
79186;SPS30;68762;51.980;5.646;2023-09-19T04:57:43;4.1;3.9;3.4;2.8;;;;2.0;54.0;
79186;SPS30;68762;51.980;5.646;2023-09-19T05:00:14;3.1;2.9;2.5;2.0;;;;2.0;52.0;
79186;SPS30;68762;51.980;5.646;2023-09-19T05:02:45;4.1;3.9;3.4;2.7;;;;2.0;51.0;
79186;SPS30;68762;51.980;5.646;2023-09-19T05:05:17;3.8;3.6;3.1;2.4;;;;2.0;51.0;
79186;SPS30;68762;51.980;5.646;2023-09-19T05:07:48;3.5;3.3;2.9;2.3;;;;2.0;49.0;
79186;SPS30;68762;51.980;5.646;2023-09-19T05:10:18;3.8;3.6;3.1;2.4;;;;2.0;48.0;
79186;SPS30;68762;51.980;5.646;2023-09-19T05:12:46;3.4;3.2;2.8;2.2;;;;2.0;46.0;
79186;SPS30;68762;51.980;5.646;2023-09-19T05:15:18;3.6;3.4;3.0;2.4;;;;2.0;43.0;
79186;SPS30;68762;51.980;5.646;2023-09-19T05:17:49;3.1;3.0;2.6;2.1;;;;2.0;42.0;
79186;SPS30;68762;51.980;5.646;2023-09-19T05:20:22;3.6;3.4;3.0;2.4;;;;2.0;41.0;
79186;SPS30;68762;51.980;5.646;2023-09-19T05:22:59;3.2;3.1;2.7;2.2;;;;2.0;41.0;
79186;SPS30;68762;51.980;5.646;2023-09-19T05:25:30;3.2;3.1;2.8;2.3;;;;2.0;41.0;
79186;SPS30;68762;51.980;5.646;2023-09-19T05:28:03;3.7;3.4;3.0;2.4;;;;2.0;43.0;
79186;SPS30;68762;51.980;5.646;2023-09-19T05:30:33;2.7;2.5;2.2;1.7;;;;2.0;43.0;
79186;SPS30;68762;51.980;5.646;2023-09-19T05:33:04;3.6;3.4;3.0;2.4;;;;2.0;43.0;
79186;SPS30;68762;51.980;5.646;2023-09-19T05:35:34;3.6;3.4;2.9;2.3;;;;2.0;43.0;
79186;SPS30;68762;51.980;5.646;2023-09-19T05:38:05;3.4;3.2;2.7;2.1;;;;2.0;44.0;
79186;SPS30;68762;51.980;5.646;2023-09-19T05:40:36;3.6;3.3;2.9;2.2;;;;2.0;44.0;
79186;SPS30;68762;51.980;5.646;2023-09-19T05:43:05;4.1;3.8;3.3;2.5;;;;2.0;48.0;
79186;SPS30;68762;51.980;5.646;2023-09-19T05:45:34;4.4;4.1;3.5;2.6;;;;2.0;60.0;
79186;SPS30;68762;51.980;5.646;2023-09-19T05:48:09;3.1;3.0;2.6;2.0;;;;2.0;89.0;
79186;SPS30;68762;51.980;5.646;2023-09-19T05:50:39;3.5;3.3;2.9;2.2;;;;2.0;74.0;
79186;SPS30;68762;51.980;5.646;2023-09-19T05:53:08;3.8;3.5;3.0;2.3;;;;2.0;72.0;
79186;SPS30;68762;51.980;5.646;2023-09-19T05:55:40;4.4;4.1;3.5;2.7;;;;2.0;74.0;
79186;SPS30;68762;51.980;5.646;2023-09-19T05:58:09;3.4;3.2;2.8;2.1;;;;2.0;72.0;
79186;SPS30;68762;51.980;5.646;2023-09-19T06:00:40;3.8;3.6;3.1;2.4;;;;2.0;70.0;
79186;SPS30;68762;51.980;5.646;2023-09-19T06:03:10;3.5;3.3;2.8;2.1;;;;2.0;69.0;
79186;SPS30;68762;51.980;5.646;2023-09-19T06:05:40;4.4;4.1;3.4;2.5;;;;2.0;72.0;
79186;SPS30;68762;51.980;5.646;2023-09-19T06:08:09;3.3;3.2;2.7;2.1;;;;2.0;72.0;
79186;SPS30;68762;51.980;5.646;2023-09-19T06:10:39;3.6;3.4;2.9;2.2;;;;2.0;71.0;
79186;SPS30;68762;51.980;5.646;2023-09-19T06:13:08;4.1;3.8;3.2;2.4;;;;2.0;70.0;
79186;SPS30;68762;51.980;5.646;2023-09-19T06:15:38;4.2;3.9;3.4;2.5;;;;2.0;69.0;
79186;SPS30;68762;51.980;5.646;2023-09-19T06:18:10;3.3;3.1;2.6;2.0;;;;2.0;67.0;
79186;SPS30;68762;51.980;5.646;2023-09-19T06:20:43;3.7;3.5;3.0;2.4;;;;2.0;66.0;
79186;SPS30;68762;51.980;5.646;2023-09-19T06:23:12;3.6;3.4;2.9;2.1;;;;2.0;67.0;
79186;SPS30;68762;51.980;5.646;2023-09-19T06:25:41;3.8;3.6;3.1;2.4;;;;2.0;66.0;
79186;SPS30;68762;51.980;5.646;2023-09-19T06:28:11;3.2;3.0;2.6;2.0;;;;2.0;67.0;
79186;SPS30;68762;51.980;5.646;2023-09-19T06:30:40;3.6;3.3;2.8;2.1;;;;2.0;68.0;
79186;SPS30;68762;51.980;5.646;2023-09-19T06:33:10;4.4;4.0;3.3;2.3;;;;2.0;72.0;
79186;SPS30;68762;51.980;5.646;2023-09-19T06:35:40;4.0;3.8;3.2;2.4;;;;2.0;76.0;
79186;SPS30;68762;51.980;5.646;2023-09-19T06:38:10;4.2;3.9;3.3;2.5;;;;2.0;75.0;
79186;SPS30;68762;51.980;5.646;2023-09-19T06:40:39;4.1;3.9;3.3;2.5;;;;2.0;78.0;
79186;SPS30;68762;51.980;5.646;2023-09-19T06:43:09;4.0;3.8;3.3;2.5;;;;2.0;83.0;
79186;SPS30;68762;51.980;5.646;2023-09-19T06:45:38;4.2;3.9;3.4;2.6;;;;2.0;81.0;
79186;SPS30;68762;51.980;5.646;2023-09-19T06:48:07;4.1;3.8;3.3;2.5;;;;2.0;76.0;
79186;SPS30;68762;51.980;5.646;2023-09-19T06:50:36;3.7;3.5;2.9;2.2;;;;2.0;75.0;
79186;SPS30;68762;51.980;5.646;2023-09-19T06:53:07;4.1;3.8;3.3;2.4;;;;2.0;71.0;
79186;SPS30;68762;51.980;5.646;2023-09-19T06:55:36;4.4;4.1;3.5;2.5;;;;2.0;70.0;
79186;SPS30;68762;51.980;5.646;2023-09-19T06:58:04;4.6;4.2;3.6;2.7;;;;2.0;66.0;
79186;SPS30;68762;51.980;5.646;2023-09-19T07:00:34;4.7;4.3;3.7;2.7;;;;2.0;66.0;
79186;SPS30;68762;51.980;5.646;2023-09-19T07:03:05;3.8;3.5;2.9;2.1;;;;2.0;66.0;
79186;SPS30;68762;51.980;5.646;2023-09-19T07:05:37;4.2;3.9;3.2;2.2;;;;2.0;66.0;
79186;SPS30;68762;51.980;5.646;2023-09-19T07:08:09;4.6;4.3;3.6;2.6;;;;2.0;68.0;
79186;SPS30;68762;51.980;5.646;2023-09-19T07:10:39;4.6;4.3;3.6;2.7;;;;2.0;68.0;
79186;SPS30;68762;51.980;5.646;2023-09-19T07:13:11;4.6;4.3;3.6;2.6;;;;2.0;69.0;
79186;SPS30;68762;51.980;5.646;2023-09-19T07:15:43;3.5;3.2;2.8;2.1;;;;2.0;71.0;
79186;SPS30;68762;51.980;5.646;2023-09-19T07:18:17;4.5;4.3;3.7;2.9;;;;2.0;73.0;
79186;SPS30;68762;51.980;5.646;2023-09-19T07:20:46;4.4;4.1;3.5;2.7;;;;2.0;72.0;
79186;SPS30;68762;51.980;5.646;2023-09-19T07:23:17;3.8;3.5;3.0;2.3;;;;1.0;71.0;
79186;SPS30;68762;51.980;5.646;2023-09-19T07:25:48;3.8;3.5;3.0;2.3;;;;1.0;70.0;
79186;SPS30;68762;51.980;5.646;2023-09-19T07:28:17;4.6;4.3;3.6;2.7;;;;1.0;70.0;
79186;SPS30;68762;51.980;5.646;2023-09-19T07:30:46;4.4;4.1;3.4;2.5;;;;1.0;70.0;
79186;SPS30;68762;51.980;5.646;2023-09-19T07:33:14;4.9;4.5;3.8;2.7;;;;1.0;69.0;
79186;SPS30;68762;51.980;5.646;2023-09-19T07:35:46;4.2;3.9;3.2;2.3;;;;1.0;69.0;
79186;SPS30;68762;51.980;5.646;2023-09-19T07:38:15;4.8;4.4;3.6;2.6;;;;1.0;71.0;
79186;SPS30;68762;51.980;5.646;2023-09-19T07:40:44;4.6;4.3;3.5;2.5;;;;1.0;72.0;
79186;SPS30;68762;51.980;5.646;2023-09-19T07:43:13;4.4;4.1;3.4;2.4;;;;1.0;72.0;
79186;SPS30;68762;51.980;5.646;2023-09-19T07:45:44;4.6;4.2;3.5;2.4;;;;1.0;74.0;
79186;SPS30;68762;51.980;5.646;2023-09-19T07:48:13;4.4;4.1;3.4;2.5;;;;1.0;76.0;
79186;SPS30;68762;51.980;5.646;2023-09-19T07:50:42;4.6;4.3;3.6;2.6;;;;1.0;84.0;
79186;SPS30;68762;51.980;5.646;2023-09-19T07:53:13;5.0;4.6;3.9;2.9;;;;1.0;78.0;
79186;SPS30;68762;51.980;5.646;2023-09-19T07:55:43;3.8;3.5;2.9;2.0;;;;1.0;72.0;
79186;SPS30;68762;51.980;5.646;2023-09-19T07:58:14;4.5;4.1;3.3;2.2;;;;1.0;71.0;
79186;SPS30;68762;51.980;5.646;2023-09-19T08:00:42;5.0;4.6;3.7;2.5;;;;1.0;70.0;
79186;SPS30;68762;51.980;5.646;2023-09-19T08:03:12;5.2;4.7;3.8;2.6;;;;1.0;75.0;
79186;SPS30;68762;51.980;5.646;2023-09-19T08:05:41;4.8;4.4;3.6;2.5;;;;1.0;75.0;
79186;SPS30;68762;51.980;5.646;2023-09-19T08:08:09;4.7;4.3;3.6;2.5;;;;1.0;74.0;
79186;SPS30;68762;51.980;5.646;2023-09-19T08:10:40;4.9;4.5;3.7;2.6;;;;1.0;74.0;
79186;SPS30;68762;51.980;5.646;2023-09-19T08:13:15;5.1;4.6;3.7;2.5;;;;1.0;74.0;
79186;SPS30;68762;51.980;5.646;2023-09-19T08:15:44;5.0;4.6;3.7;2.5;;;;1.0;71.0;
79186;SPS30;68762;51.980;5.646;2023-09-19T08:18:14;5.1;4.6;3.7;2.4;;;;1.0;70.0;
79186;SPS30;68762;51.980;5.646;2023-09-19T08:20:43;5.6;5.1;4.1;2.7;;;;1.0;68.0;
79186;SPS30;68762;51.980;5.646;2023-09-19T08:23:19;5.7;5.2;4.3;3.0;;;;1.0;67.0;
79186;SPS30;68762;51.980;5.646;2023-09-19T08:25:48;5.2;4.7;3.8;2.6;;;;1.0;68.0;
79186;SPS30;68762;51.980;5.646;2023-09-19T08:28:16;5.2;4.7;3.8;2.5;;;;1.0;69.0;
79186;SPS30;68762;51.980;5.646;2023-09-19T08:30:50;6.2;5.6;4.4;2.8;;;;1.0;71.0;
79186;SPS30;68762;51.980;5.646;2023-09-19T08:33:19;5.3;4.8;3.8;2.5;;;;1.0;79.0;
79186;SPS30;68762;51.980;5.646;2023-09-19T08:35:49;5.6;5.1;4.0;2.6;;;;1.0;81.0;
79186;SPS30;68762;51.980;5.646;2023-09-19T08:38:18;6.2;5.7;4.5;3.0;;;;1.0;80.0;
79186;SPS30;68762;51.980;5.646;2023-09-19T08:40:46;5.1;4.6;3.7;2.4;;;;1.0;79.0;
79186;SPS30;68762;51.980;5.646;2023-09-19T08:43:17;6.6;6.0;4.9;3.3;;;;1.0;79.0;
79186;SPS30;68762;51.980;5.646;2023-09-19T08:45:50;5.0;4.6;3.7;2.4;;;;1.0;78.0;
79186;SPS30;68762;51.980;5.646;2023-09-19T08:48:22;4.8;4.4;3.5;2.4;;;;1.0;78.0;
79186;SPS30;68762;51.980;5.646;2023-09-19T08:50:56;5.7;5.2;4.2;2.7;;;;1.0;84.0;
79186;SPS30;68762;51.980;5.646;2023-09-19T08:53:29;5.7;5.2;4.1;2.8;;;;1.0;84.0;
79186;SPS30;68762;51.980;5.646;2023-09-19T08:56:04;5.3;4.9;3.9;2.7;;;;1.0;88.0;
79186;SPS30;68762;51.980;5.646;2023-09-19T08:58:43;4.5;4.1;3.3;2.2;;;;1.0;90.0;
79186;SPS30;68762;51.980;5.646;2023-09-19T09:01:15;5.4;5.0;4.1;2.8;;;;1.0;88.0;
79186;SPS30;68762;51.980;5.646;2023-09-19T09:03:49;4.2;3.9;3.2;2.2;;;;1.0;74.0;
79186;SPS30;68762;51.980;5.646;2023-09-19T09:06:19;5.2;4.8;4.0;2.9;;;;1.0;74.0;
79186;SPS30;68762;51.980;5.646;2023-09-19T09:08:49;5.5;5.1;4.1;2.8;;;;1.0;76.0;
79186;SPS30;68762;51.980;5.646;2023-09-19T09:11:19;4.7;4.3;3.4;2.3;;;;1.0;77.0;
79186;SPS30;68762;51.980;5.646;2023-09-19T09:13:50;5.8;5.3;4.2;2.8;;;;1.0;80.0;
79186;SPS30;68762;51.980;5.646;2023-09-19T09:16:19;4.7;4.3;3.5;2.4;;;;1.0;72.0;
79186;SPS30;68762;51.980;5.646;2023-09-19T09:18:52;4.6;4.3;3.5;2.4;;;;1.0;65.0;
79186;SPS30;68762;51.980;5.646;2023-09-19T09:21:21;4.4;4.1;3.3;2.2;;;;1.0;67.0;
79186;SPS30;68762;51.980;5.646;2023-09-19T09:23:50;4.8;4.4;3.5;2.4;;;;1.0;74.0;
79186;SPS30;68762;51.980;5.646;2023-09-19T09:26:21;4.3;4.0;3.3;2.3;;;;1.0;73.0;
79186;SPS30;68762;51.980;5.646;2023-09-19T09:29:13;4.6;4.3;3.5;2.5;;;;1.0;77.0;
79186;SPS30;68762;51.980;5.646;2023-09-19T09:31:42;3.9;3.6;3.0;2.1;;;;1.0;74.0;
79186;SPS30;68762;51.980;5.646;2023-09-19T09:34:12;4.8;4.4;3.6;2.5;;;;1.0;70.0;
79186;SPS30;68762;51.980;5.646;2023-09-19T09:36:41;4.5;4.1;3.4;2.3;;;;1.0;70.0;
79186;SPS30;68762;51.980;5.646;2023-09-19T09:39:10;4.1;3.8;3.1;2.2;;;;1.0;72.0;
79186;SPS30;68762;51.980;5.646;2023-09-19T09:41:50;4.5;4.1;3.4;2.3;;;;1.0;77.0;
79186;SPS30;68762;51.980;5.646;2023-09-19T09:44:19;5.1;4.6;3.8;2.5;;;;1.0;80.0;
79186;SPS30;68762;51.980;5.646;2023-09-19T09:46:49;4.7;4.3;3.5;2.4;;;;1.0;77.0;
79186;SPS30;68762;51.980;5.646;2023-09-19T09:49:28;5.1;4.7;3.8;2.7;;;;1.0;74.0;
79186;SPS30;68762;51.980;5.646;2023-09-19T09:52:01;4.9;4.5;3.6;2.5;;;;1.0;75.0;
79186;SPS30;68762;51.980;5.646;2023-09-19T09:54:34;5.2;4.8;3.9;2.7;;;;1.0;82.0;
79186;SPS30;68762;51.980;5.646;2023-09-19T09:57:05;4.8;4.5;3.7;2.7;;;;1.0;74.0;
79186;SPS30;68762;51.980;5.646;2023-09-19T09:59:50;4.4;4.1;3.4;2.5;;;;1.0;82.0;
79186;SPS30;68762;51.980;5.646;2023-09-19T10:02:26;4.6;4.3;3.6;2.6;;;;1.0;93.0;
79186;SPS30;68762;51.980;5.646;2023-09-19T10:05:03;4.1;3.8;3.1;2.2;;;;1.0;91.0;
79186;SPS30;68762;51.980;5.646;2023-09-19T10:07:47;4.8;4.4;3.7;2.6;;;;1.0;106.0;
79186;SPS30;68762;51.980;5.646;2023-09-19T10:10:31;4.0;3.7;3.2;2.4;;;;1.0;102.0;
79186;SPS30;68762;51.980;5.646;2023-09-19T10:13:12;4.2;3.9;3.2;2.4;;;;1.0;102.0;
79186;SPS30;68762;51.980;5.646;2023-09-19T10:15:44;3.3;3.1;2.6;1.9;;;;1.0;104.0;
79186;SPS30;68762;51.980;5.646;2023-09-19T10:18:17;4.9;4.5;3.7;2.6;;;;1.0;103.0;
79186;SPS30;68762;51.980;5.646;2023-09-19T10:20:50;4.4;4.1;3.4;2.4;;;;1.0;103.0;
79186;SPS30;68762;51.980;5.646;2023-09-19T10:23:21;4.4;4.0;3.3;2.3;;;;1.0;103.0;
79186;SPS30;68762;51.980;5.646;2023-09-19T10:25:52;3.9;3.6;3.0;2.2;;;;1.0;101.0;
79186;SPS30;68762;51.980;5.646;2023-09-19T10:28:21;4.4;4.0;3.3;2.4;;;;1.0;103.0;
79186;SPS30;68762;51.980;5.646;2023-09-19T10:30:51;4.6;4.2;3.5;2.4;;;;1.0;121.0;
79186;SPS30;68762;51.980;5.646;2023-09-19T10:33:21;5.4;5.0;4.1;2.9;;;;1.0;126.0;
79186;SPS30;68762;51.980;5.646;2023-09-19T10:35:52;4.7;4.3;3.6;2.7;;;;1.0;121.0;
79186;SPS30;68762;51.980;5.646;2023-09-19T10:38:23;3.9;3.7;3.1;2.3;;;;1.0;114.0;
79186;SPS30;68762;51.980;5.646;2023-09-19T10:40:55;4.1;3.8;3.2;2.2;;;;1.0;109.0;
79186;SPS30;68762;51.980;5.646;2023-09-19T10:43:29;3.9;3.6;3.0;2.2;;;;1.0;106.0;
79186;SPS30;68762;51.980;5.646;2023-09-19T10:46:01;3.8;3.6;3.0;2.1;;;;1.0;110.0;
79186;SPS30;68762;51.980;5.646;2023-09-19T10:48:32;4.0;3.7;3.1;2.2;;;;1.0;110.0;
79186;SPS30;68762;51.980;5.646;2023-09-19T10:51:04;3.8;3.5;3.0;2.2;;;;1.0;114.0;
79186;SPS30;68762;51.980;5.646;2023-09-19T10:53:41;4.1;3.8;3.2;2.4;;;;1.0;115.0;
79186;SPS30;68762;51.980;5.646;2023-09-19T10:56:18;3.7;3.4;2.9;2.2;;;;1.0;113.0;
79186;SPS30;68762;51.980;5.646;2023-09-19T10:58:53;3.8;3.6;3.1;2.4;;;;1.0;123.0;
79186;SPS30;68762;51.980;5.646;2023-09-19T11:01:45;3.0;2.8;2.4;1.9;;;;1.0;117.0;
79186;SPS30;68762;51.980;5.646;2023-09-19T11:04:24;2.8;2.7;2.4;1.9;;;;1.0;114.0;
79186;SPS30;68762;51.980;5.646;2023-09-19T11:07:02;2.9;2.7;2.3;1.8;;;;1.0;116.0;
79186;SPS30;68762;51.980;5.646;2023-09-19T11:09:47;3.4;3.2;2.8;2.1;;;;1.0;117.0;
79186;SPS30;68762;51.980;5.646;2023-09-19T11:24:31;3.1;3.0;2.6;2.1;;;;1.0;136.0;
79186;SPS30;68762;51.980;5.646;2023-09-19T11:27:12;3.0;2.8;2.4;1.9;;;;1.0;124.0;
79186;SPS30;68762;51.980;5.646;2023-09-19T11:29:43;3.3;3.1;2.7;2.0;;;;1.0;123.0;
79186;SPS30;68762;51.980;5.646;2023-09-19T11:32:13;3.3;3.1;2.7;2.0;;;;1.0;123.0;
79186;SPS30;68762;51.980;5.646;2023-09-19T11:34:44;3.3;3.2;2.7;2.1;;;;1.0;123.0;
79186;SPS30;68762;51.980;5.646;2023-09-19T11:41:53;2.8;2.6;2.3;1.8;;;;1.0;129.0;
79186;SPS30;68762;51.980;5.646;2023-09-19T11:44:35;2.5;2.3;2.0;1.6;;;;1.0;118.0;
79186;SPS30;68762;51.980;5.646;2023-09-19T11:47:04;3.2;3.1;2.7;2.1;;;;1.0;123.0;
79186;SPS30;68762;51.980;5.646;2023-09-19T11:49:35;2.3;2.2;1.9;1.5;;;;1.0;133.0;
79186;SPS30;68762;51.980;5.646;2023-09-19T11:52:16;3.5;3.3;2.8;2.1;;;;1.0;128.0;
79186;SPS30;68762;51.980;5.646;2023-09-19T11:54:55;3.4;3.2;2.6;1.9;;;;1.0;127.0;
79186;SPS30;68762;51.980;5.646;2023-09-19T11:57:25;2.7;2.5;2.1;1.5;;;;1.0;129.0;
79186;SPS30;68762;51.980;5.646;2023-09-19T11:59:56;2.1;2.0;1.6;1.2;;;;1.0;127.0;
79186;SPS30;68762;51.980;5.646;2023-09-19T12:02:32;2.7;2.5;2.1;1.6;;;;1.0;129.0;
79186;SPS30;68762;51.980;5.646;2023-09-19T12:05:08;3.3;3.1;2.6;1.8;;;;1.0;137.0;
79186;SPS30;68762;51.980;5.646;2023-09-19T12:07:43;3.1;2.9;2.4;1.7;;;;1.0;144.0;
79186;SPS30;68762;51.980;5.646;2023-09-19T12:10:14;2.6;2.4;2.0;1.5;;;;1.0;150.0;
79186;SPS30;68762;51.980;5.646;2023-09-19T12:12:48;3.1;2.9;2.4;1.8;;;;1.0;120.0;
79186;SPS30;68762;51.980;5.646;2023-09-19T12:15:24;2.8;2.6;2.2;1.7;;;;1.0;110.0;
79186;SPS30;68762;51.980;5.646;2023-09-19T12:17:55;2.7;2.5;2.2;1.6;;;;1.0;106.0;
79186;SPS30;68762;51.980;5.646;2023-09-19T12:20:24;2.3;2.1;1.8;1.4;;;;1.0;109.0;
79186;SPS30;68762;51.980;5.646;2023-09-19T12:22:52;2.4;2.3;1.9;1.5;;;;1.0;112.0;
79186;SPS30;68762;51.980;5.646;2023-09-19T12:25:21;2.5;2.3;2.0;1.5;;;;1.0;120.0;
79186;SPS30;68762;51.980;5.646;2023-09-19T12:27:51;2.3;2.2;1.8;1.4;;;;1.0;135.0;
79186;SPS30;68762;51.980;5.646;2023-09-19T12:30:26;2.6;2.4;2.0;1.5;;;;1.0;131.0;
79186;SPS30;68762;51.980;5.646;2023-09-19T12:32:59;1.9;1.8;1.6;1.2;;;;1.0;124.0;
79186;SPS30;68762;51.980;5.646;2023-09-19T12:35:29;2.1;2.0;1.7;1.3;;;;1.0;108.0;
79186;SPS30;68762;51.980;5.646;2023-09-19T12:38:01;2.4;2.3;1.9;1.5;;;;1.0;104.0;
79186;SPS30;68762;51.980;5.646;2023-09-19T12:40:30;1.9;1.8;1.5;1.1;;;;1.0;105.0;
79186;SPS30;68762;51.980;5.646;2023-09-19T12:43:03;2.0;1.9;1.6;1.3;;;;1.0;106.0;
79186;SPS30;68762;51.980;5.646;2023-09-19T12:45:35;2.1;2.0;1.8;1.4;;;;1.0;110.0;
79186;SPS30;68762;51.980;5.646;2023-09-19T12:48:20;1.8;1.7;1.5;1.1;;;;1.0;113.0;
79186;SPS30;68762;51.980;5.646;2023-09-19T12:51:01;1.6;1.5;1.3;1.1;;;;1.0;122.0;